Terminal Aerodrome Forecast
Issued by NWS

Current Version | Previous Version | Text Only | Print | Product List | Glossary On
Versions: 1 2 3 4 5 6 7 8 9 10 11 12 13 14 15 16 17 18 19 20 21 22 23 24 25
000
FTUS43 KMQT 231100
TAFSAW
TAF
KSAW 231120Z 2312/2412 19009KT 3SM BR BKN002
     FM231500 19010KT 6SM BR BKN005
     FM231700 19011KT P6SM VCSH SCT005 OVC040
     FM232100 19009KT P6SM -SHRA OVC025
     FM240000 20007KT P6SM VCSH OVC015
     FM240300 21005KT P6SM OVC015
     FM240900 23003KT 3SM BR BKN003
      AMD LTD TO CLD VIS AND WIND 2402/2410=

USA.gov is the U.S. government's official web portal to all federal, state and local government web resources and services.